createdAt,value
2022-11-18T00:00:21.613Z,37.10
2022-11-18T00:01:01.563Z,34.20
2022-11-18T00:01:41.649Z,33.05
2022-11-18T00:02:22.577Z,31.99
2022-11-18T00:03:02.645Z,25.44
2022-11-18T00:03:44.515Z,21.54
2022-11-18T00:04:24.674Z,17.02
2022-11-18T00:05:04.543Z,13.98
2022-11-18T00:05:44.646Z,15.25
2022-11-18T00:06:30.548Z,14.04
2022-11-18T00:07:10.746Z,14.09
2022-11-18T00:07:50.525Z,14.30
2022-11-18T00:08:31.707Z,14.65
2022-11-18T00:09:11.576Z,14.10
2022-11-18T00:09:51.800Z,14.99
2022-11-18T00:10:31.545Z,16.02
2022-11-18T00:11:48.582Z,15.19
2022-11-18T00:13:00.498Z,16.05
2022-11-18T00:14:12.560Z,17.49
2022-11-18T00:15:06.562Z,17.92
2022-11-18T00:16:00.532Z,18.67
2022-11-18T00:16:54.557Z,18.17
2022-11-18T00:17:48.574Z,16.16
2022-11-18T00:18:42.586Z,14.81
2022-11-18T00:19:43.537Z,13.89
2022-11-18T00:20:37.493Z,12.70
2022-11-18T00:21:31.569Z,11.86
2022-11-18T00:22:19.624Z,10.77
2022-11-18T00:22:53.629Z,10.70
2022-11-18T00:23:40.555Z,11.31
2022-11-18T00:24:14.626Z,11.81
2022-11-18T00:25:01.488Z,11.80
2022-11-18T00:25:35.566Z,13.73
2022-11-18T00:26:22.484Z,14.68
2022-11-18T00:26:57.696Z,15.39
2022-11-18T00:27:44.552Z,15.73
2022-11-18T00:28:18.573Z,16.15
2022-11-18T00:29:05.552Z,18.41
2022-11-18T00:29:39.649Z,17.51
2022-11-18T00:30:26.515Z,16.84
2022-11-18T00:31:00.545Z,16.39
2022-11-18T00:31:47.528Z,15.09
2022-11-18T00:32:21.582Z,15.02
2022-11-18T00:33:08.534Z,14.85
2022-11-18T00:33:48.537Z,14.54
2022-11-18T00:34:28.508Z,14.26
2022-11-18T00:35:08.566Z,15.77
2022-11-18T00:35:48.533Z,14.80
2022-11-18T00:36:29.619Z,15.88
2022-11-18T00:37:10.537Z,16.58
2022-11-18T00:37:50.570Z,16.21
2022-11-18T00:38:31.538Z,16.45
2022-11-18T00:39:11.581Z,16.39
2022-11-18T00:39:51.529Z,15.65
2022-11-18T00:40:31.583Z,14.69
2022-11-18T00:41:15.499Z,13.57
2022-11-18T00:42:15.138Z,13.50
2022-11-18T00:42:58.505Z,16.41
2022-11-18T00:43:46.567Z,19.19
2022-11-18T00:44:20.217Z,24.29
2022-11-18T00:45:07.542Z,30.05
2022-11-18T00:45:43.817Z,28.35
2022-11-18T00:46:30.462Z,27.45
2022-11-18T00:47:04.548Z,26.54
2022-11-18T00:47:51.524Z,28.83
2022-11-18T00:48:25.606Z,29.63
2022-11-18T00:49:05.513Z,25.30
2022-11-18T00:49:39.526Z,24.44
2022-11-18T00:50:14.497Z,22.80
2022-11-18T00:51:00.516Z,17.47
2022-11-18T00:51:34.587Z,17.49
2022-11-18T00:52:08.140Z,17.81
2022-11-18T00:52:48.467Z,16.19
2022-11-18T00:53:23.651Z,16.58
2022-11-18T00:53:57.309Z,17.48
2022-11-18T00:54:38.541Z,15.01
2022-11-18T00:55:12.513Z,13.05
2022-11-18T00:55:46.148Z,12.40
2022-11-18T00:56:26.533Z,13.46
2022-11-18T00:57:00.660Z,13.88
2022-11-18T00:57:34.200Z,13.13
2022-11-18T00:58:14.491Z,12.51
2022-11-18T00:58:48.579Z,12.04
2022-11-18T00:59:22.236Z,12.73
2022-11-18T01:00:03.482Z,12.70
2022-11-18T01:00:37.590Z,12.46
2022-11-18T01:01:11.227Z,12.41
2022-11-18T01:01:51.587Z,13.02
2022-11-18T01:02:25.656Z,12.29
2022-11-18T01:02:59.141Z,11.81
2022-11-18T01:03:39.466Z,12.61
2022-11-18T01:04:13.576Z,12.80
2022-11-18T01:04:48.193Z,12.93
2022-11-18T01:05:28.505Z,12.61
2022-11-18T01:06:02.518Z,12.32
2022-11-18T01:06:36.239Z,12.25
2022-11-18T01:07:16.541Z,12.85
2022-11-18T01:07:50.589Z,13.99
2022-11-18T01:08:24.275Z,13.41
2022-11-18T01:09:04.486Z,13.31
2022-11-18T01:09:38.542Z,14.05
2022-11-18T01:10:12.310Z,13.81
2022-11-18T01:10:54.465Z,13.29
2022-11-18T01:11:46.943Z,14.46
2022-11-18T01:12:40.137Z,13.68
2022-11-18T01:13:27.459Z,13.55
2022-11-18T01:14:01.501Z,13.82
2022-11-18T01:14:35.187Z,14.38
2022-11-18T01:15:16.438Z,13.86
2022-11-18T01:16:09.509Z,12.90
2022-11-18T01:16:43.166Z,12.34
2022-11-18T01:17:30.442Z,12.71
2022-11-18T01:18:04.188Z,13.59
2022-11-18T01:18:51.427Z,12.90
2022-11-18T01:19:26.496Z,12.44
2022-11-18T01:20:13.450Z,13.38
2022-11-18T01:20:47.674Z,14.24
2022-11-18T01:21:34.517Z,15.01
2022-11-18T01:22:08.209Z,16.61
2022-11-18T01:22:55.448Z,18.33
2022-11-18T01:23:29.561Z,19.52
2022-11-18T01:24:17.448Z,20.04
2022-11-18T01:24:51.142Z,19.21
2022-11-18T01:25:39.485Z,17.14
2022-11-18T01:26:16.152Z,16.88
2022-11-18T01:26:56.495Z,16.69
2022-11-18T01:27:30.509Z,16.26
2022-11-18T01:28:04.837Z,15.06
2022-11-18T01:28:45.462Z,14.20
2022-11-18T01:29:19.728Z,15.11
2022-11-18T01:29:54.137Z,14.63
2022-11-18T01:30:34.603Z,14.38
2022-11-18T01:31:13.577Z,16.66
2022-11-18T01:32:16.935Z,15.74
2022-11-18T01:32:47.503Z,15.91
2022-11-18T01:33:21.473Z,17.69
2022-11-18T01:33:55.112Z,17.69
2022-11-18T01:34:36.440Z,18.05
2022-11-18T01:35:10.511Z,18.20
2022-11-18T01:35:44.982Z,15.71
2022-11-18T01:36:34.397Z,14.79
2022-11-18T01:37:08.679Z,14.91
2022-11-18T01:37:43.115Z,16.60
2022-11-18T01:38:23.472Z,15.93
2022-11-18T01:38:57.525Z,15.19
2022-11-18T01:39:31.484Z,17.34
2022-11-18T01:40:14.466Z,20.85
2022-11-18T01:40:48.477Z,24.67
2022-11-18T01:41:25.183Z,26.40
2022-11-18T01:42:05.441Z,26.71
2022-11-18T01:42:39.572Z,24.17
2022-11-18T01:43:18.252Z,26.84
2022-11-18T01:44:07.465Z,31.81
2022-11-18T01:45:28.508Z,32.36
2022-11-18T01:46:02.132Z,25.98
2022-11-18T01:46:42.426Z,24.58
2022-11-18T01:47:16.502Z,22.61
2022-11-18T01:48:17.074Z,20.64
2022-11-18T01:49:13.456Z,20.58
2022-11-18T01:49:47.436Z,18.45
2022-11-18T01:50:22.509Z,18.33
2022-11-18T01:51:08.394Z,19.61
2022-11-18T01:51:54.499Z,17.90
2022-11-18T01:52:29.990Z,16.96
2022-11-18T01:53:21.417Z,16.99
2022-11-18T01:54:30.619Z,15.29
2022-11-18T01:55:12.439Z,14.95
2022-11-18T01:56:02.432Z,14.98
2022-11-18T01:56:50.473Z,14.74
2022-11-18T01:57:38.464Z,15.26
2022-11-18T01:58:19.015Z,15.06
2022-11-18T01:59:31.625Z,13.32
2022-11-18T02:00:07.682Z,14.06
2022-11-18T02:00:54.424Z,14.65
2022-11-18T02:01:28.154Z,14.19
2022-11-18T02:02:21.396Z,14.63
2022-11-18T02:02:55.181Z,14.65
2022-11-18T02:03:42.460Z,15.25
2022-11-18T02:04:16.442Z,14.34
2022-11-18T02:04:59.557Z,14.21
2022-11-18T02:05:33.809Z,14.82
2022-11-18T02:06:10.166Z,14.89
2022-11-18T02:06:52.397Z,14.05
2022-11-18T02:07:32.551Z,13.25
2022-11-18T02:08:13.417Z,13.91
2022-11-18T02:08:53.590Z,14.60
2022-11-18T02:09:33.364Z,14.93
2022-11-18T02:10:22.513Z,15.14
2022-11-18T02:10:56.071Z,15.35
2022-11-18T02:12:00.534Z,14.14
2022-11-18T02:12:34.969Z,14.35
2022-11-18T02:13:22.378Z,14.48
2022-11-18T02:13:56.757Z,13.95
2022-11-18T02:14:50.421Z,14.57
2022-11-18T02:16:08.418Z,14.61
2022-11-18T02:17:28.431Z,14.31
2022-11-18T02:18:26.442Z,14.31
2022-11-18T02:19:10.553Z,13.76
2022-11-18T02:19:53.478Z,14.16
2022-11-18T02:20:38.502Z,14.79
2022-11-18T02:22:04.473Z,13.70
2022-11-18T02:23:26.476Z,14.40
2022-11-18T02:24:35.462Z,13.93
2022-11-18T02:25:59.409Z,13.48
2022-11-18T02:27:25.442Z,13.30
2022-11-18T02:29:06.727Z,15.34
2022-11-18T02:30:14.386Z,16.94
2022-11-18T02:31:07.468Z,14.96
2022-11-18T02:32:17.431Z,13.69
2022-11-18T02:33:03.494Z,12.79
2022-11-18T02:34:06.568Z,12.48
2022-11-18T02:34:51.596Z,12.90
2022-11-18T02:36:00.448Z,12.29
2022-11-18T02:36:54.419Z,12.54
2022-11-18T02:37:39.950Z,12.11
2022-11-18T02:38:39.449Z,11.76
2022-11-18T02:39:20.498Z,12.55
2022-11-18T02:40:18.010Z,13.20
2022-11-18T02:41:06.385Z,12.84
2022-11-18T02:41:41.384Z,12.81
2022-11-18T02:42:15.749Z,13.09
2022-11-18T02:43:02.378Z,12.61
2022-11-18T02:43:48.417Z,12.46
2022-11-18T02:44:24.884Z,12.63
2022-11-18T02:45:19.344Z,12.84
2022-11-18T02:45:58.485Z,13.69
2022-11-18T02:46:51.361Z,14.02
2022-11-18T02:47:27.564Z,13.70
2022-11-18T02:48:21.357Z,14.76
2022-11-18T02:49:01.371Z,14.60
2022-11-18T02:49:48.373Z,14.59
2022-11-18T02:50:32.404Z,15.61
2022-11-18T02:51:14.473Z,14.80
2022-11-18T02:51:56.388Z,14.05
2022-11-18T02:52:39.386Z,14.61
2022-11-18T02:53:22.332Z,14.50
2022-11-18T02:54:14.445Z,15.05
2022-11-18T02:54:48.954Z,14.00
2022-11-18T02:55:37.326Z,13.61
2022-11-18T02:56:11.221Z,14.55
2022-11-18T02:57:00.367Z,14.43
2022-11-18T02:57:34.685Z,14.07
2022-11-18T02:58:22.366Z,13.54
2022-11-18T02:58:56.033Z,13.90
2022-11-18T02:59:36.349Z,14.64
2022-11-18T03:00:11.502Z,14.14
2022-11-18T03:00:45.221Z,13.50
2022-11-18T03:01:37.507Z,14.48
2022-11-18T03:02:11.437Z,14.56
2022-11-18T03:02:49.006Z,14.43
2022-11-18T03:03:40.400Z,14.99
2022-11-18T03:04:14.424Z,14.34
2022-11-18T03:04:56.408Z,15.11
2022-11-18T03:05:55.402Z,15.23
2022-11-18T03:06:52.369Z,16.01
2022-11-18T03:07:46.370Z,15.55
2022-11-18T03:08:39.313Z,15.32
2022-11-18T03:09:34.419Z,14.85
2022-11-18T03:10:21.363Z,16.15
2022-11-18T03:11:24.442Z,15.31
2022-11-18T03:12:48.389Z,16.30
2022-11-18T03:13:31.396Z,16.44
2022-11-18T03:14:37.367Z,17.81
2022-11-18T03:15:39.381Z,18.23
2022-11-18T03:17:14.391Z,17.83
2022-11-18T03:18:38.410Z,18.10
2022-11-18T03:20:09.366Z,17.38
2022-11-18T03:21:00.354Z,17.49
2022-11-18T03:21:52.520Z,17.42
2022-11-18T03:22:57.376Z,17.09
2022-11-18T03:23:47.436Z,17.96
2022-11-18T03:24:39.358Z,18.36
2022-11-18T03:25:19.369Z,17.56
2022-11-18T03:26:24.385Z,17.23
2022-11-18T03:27:07.364Z,17.52
2022-11-18T03:28:17.280Z,17.79
2022-11-18T03:29:10.390Z,17.44
2022-11-18T03:30:13.332Z,18.48
2022-11-18T03:30:56.480Z,19.13
2022-11-18T03:32:00.317Z,18.64
2022-11-18T03:32:36.371Z,18.34
2022-11-18T03:33:31.299Z,18.35
2022-11-18T03:34:18.329Z,18.23
2022-11-18T03:35:27.350Z,18.05
2022-11-18T03:36:01.367Z,18.02
2022-11-18T03:36:57.173Z,18.17
2022-11-18T03:37:41.313Z,17.63
2022-11-18T03:38:43.289Z,17.04
2022-11-18T03:39:38.293Z,16.77
2022-11-18T03:40:36.371Z,17.94
2022-11-18T03:41:32.365Z,18.58
2022-11-18T03:42:42.373Z,17.35
2022-11-18T03:43:40.301Z,16.98
2022-11-18T03:44:39.297Z,18.50
2022-11-18T03:45:40.399Z,19.20
2022-11-18T03:46:40.279Z,17.04
2022-11-18T03:47:41.287Z,16.26
2022-11-18T03:48:30.362Z,16.60
2022-11-18T03:49:14.674Z,17.38
2022-11-18T03:50:05.291Z,17.81
2022-11-18T03:50:54.398Z,16.88
2022-11-18T03:51:45.331Z,16.60
2022-11-18T03:52:30.449Z,16.58
2022-11-18T03:53:11.321Z,16.08
2022-11-18T03:54:00.421Z,15.91
2022-11-18T03:54:43.277Z,16.44
2022-11-18T03:55:30.345Z,15.59
2022-11-18T03:56:24.344Z,15.24
2022-11-18T03:57:29.330Z,15.51
2022-11-18T03:58:27.384Z,15.95
2022-11-18T03:59:29.357Z,15.70
2022-11-18T04:00:26.245Z,16.41
2022-11-18T04:01:29.497Z,14.79
2022-11-18T04:02:49.324Z,15.76
2022-11-18T04:03:43.310Z,16.39
2022-11-18T04:04:39.310Z,15.76
2022-11-18T04:05:34.298Z,15.61
2022-11-18T04:06:59.394Z,15.38
2022-11-18T04:08:13.322Z,15.07
2022-11-18T04:09:04.298Z,16.11
2022-11-18T04:09:45.380Z,15.11
2022-11-18T04:11:13.346Z,15.84
2022-11-18T04:12:04.649Z,16.35
2022-11-18T04:13:06.755Z,16.45
2022-11-18T04:13:44.286Z,16.21
2022-11-18T04:14:27.311Z,16.23
2022-11-18T04:15:08.385Z,17.39
2022-11-18T04:15:49.297Z,16.61
2022-11-18T04:16:29.510Z,16.34
2022-11-18T04:17:21.309Z,16.04
2022-11-18T04:18:01.353Z,15.35
2022-11-18T04:18:41.302Z,15.35
2022-11-18T04:19:21.631Z,15.70
2022-11-18T04:20:03.329Z,15.27
2022-11-18T04:20:44.377Z,15.35
2022-11-18T04:21:24.263Z,15.96
2022-11-18T04:22:04.352Z,15.49
2022-11-18T04:22:44.279Z,14.90
2022-11-18T04:23:24.341Z,15.48
2022-11-18T04:24:04.244Z,17.00
2022-11-18T04:24:44.278Z,17.26
2022-11-18T04:25:24.311Z,17.06
2022-11-18T04:26:04.416Z,16.86
2022-11-18T04:26:44.308Z,15.96
2022-11-18T04:27:24.308Z,15.98
2022-11-18T04:28:04.282Z,16.11
2022-11-18T04:28:44.472Z,16.34
2022-11-18T04:29:25.252Z,16.06
2022-11-18T04:30:05.326Z,16.55
2022-11-18T04:30:45.298Z,16.80
2022-11-18T04:31:25.286Z,16.27
2022-11-18T04:32:07.233Z,16.14
2022-11-18T04:32:47.313Z,16.83
2022-11-18T04:33:27.213Z,17.46
2022-11-18T04:34:07.238Z,17.20
2022-11-18T04:34:47.512Z,18.00
2022-11-18T04:35:41.271Z,18.36
2022-11-18T04:36:21.309Z,18.89
2022-11-18T04:37:01.285Z,20.14
2022-11-18T04:37:41.281Z,20.59
2022-11-18T04:38:22.374Z,21.00
2022-11-18T04:39:02.252Z,21.15
2022-11-18T04:39:42.309Z,25.83
2022-11-18T04:40:23.218Z,29.73
2022-11-18T04:41:03.297Z,32.32
2022-11-18T04:42:02.317Z,37.26
2022-11-18T04:42:42.245Z,41.76
2022-11-18T04:43:23.261Z,46.61
2022-11-18T04:44:13.014Z,47.13
2022-11-18T04:44:53.260Z,49.53
2022-11-18T04:45:33.301Z,51.22
2022-11-18T04:46:13.301Z,51.09
2022-11-18T04:46:53.282Z,48.15
2022-11-18T04:47:33.276Z,41.09
2022-11-18T04:48:13.256Z,34.99
2022-11-18T04:48:53.234Z,30.74
2022-11-18T04:49:34.263Z,27.01
2022-11-18T04:50:15.203Z,26.16
2022-11-18T04:50:55.353Z,25.17
2022-11-18T04:51:35.290Z,23.58
2022-11-18T04:52:15.329Z,20.63
2022-11-18T04:52:56.224Z,18.35
2022-11-18T04:53:36.322Z,18.31
2022-11-18T04:54:17.271Z,17.73
2022-11-18T04:54:57.367Z,17.38
2022-11-18T04:55:37.384Z,17.85
2022-11-18T04:56:17.513Z,18.73
2022-11-18T04:56:58.209Z,18.06
2022-11-18T04:57:38.316Z,16.83
2022-11-18T04:58:18.257Z,17.21
2022-11-18T04:58:58.248Z,16.69
2022-11-18T04:59:39.237Z,16.25
2022-11-18T05:00:19.306Z,16.52
2022-11-18T05:00:59.309Z,16.54
2022-11-18T05:01:39.300Z,15.73
2022-11-18T05:02:20.250Z,15.81
2022-11-18T05:03:00.381Z,15.99
2022-11-18T05:03:40.232Z,16.15
2022-11-18T05:04:30.778Z,16.45
2022-11-18T05:05:12.206Z,16.76
2022-11-18T05:05:52.294Z,17.67
2022-11-18T05:06:32.236Z,18.24
2022-11-18T05:07:13.291Z,19.16
2022-11-18T05:07:53.297Z,17.48
2022-11-18T05:08:33.313Z,17.01
2022-11-18T05:09:13.262Z,17.42
2022-11-18T05:09:53.218Z,17.74
2022-11-18T05:10:33.233Z,16.50
2022-11-18T05:11:33.100Z,16.24
2022-11-18T05:12:44.200Z,16.61
2022-11-18T05:13:24.271Z,16.23
2022-11-18T05:14:04.237Z,16.41
2022-11-18T05:14:49.634Z,16.25
2022-11-18T05:15:27.269Z,16.25
2022-11-18T05:16:14.220Z,16.25
2022-11-18T05:16:48.226Z,15.18
2022-11-18T05:17:35.179Z,14.73
2022-11-18T05:18:09.255Z,15.29
2022-11-18T05:18:56.178Z,14.73
2022-11-18T05:19:30.784Z,15.52
2022-11-18T05:20:12.225Z,16.86
2022-11-18T05:20:52.374Z,15.31
2022-11-18T05:21:33.185Z,15.10
2022-11-18T05:22:14.289Z,15.73
2022-11-18T05:22:54.177Z,15.71
2022-11-18T05:23:34.308Z,16.24
2022-11-18T05:24:14.245Z,15.44
2022-11-18T05:24:54.298Z,15.84
2022-11-18T05:25:34.232Z,15.38
2022-11-18T05:26:18.276Z,16.08
2022-11-18T05:26:59.172Z,16.86
2022-11-18T05:27:39.294Z,17.21
2022-11-18T05:28:19.180Z,16.49
2022-11-18T05:28:59.298Z,16.59
2022-11-18T05:29:40.233Z,16.41
2022-11-18T05:30:21.538Z,17.19
2022-11-18T05:31:02.184Z,19.51
2022-11-18T05:31:42.329Z,17.90
2022-11-18T05:32:22.252Z,17.61
2022-11-18T05:33:02.185Z,19.58
2022-11-18T05:33:43.197Z,20.51
2022-11-18T05:34:37.307Z,22.05
2022-11-18T05:35:31.245Z,25.19
2022-11-18T05:36:22.193Z,28.86
2022-11-18T05:36:56.322Z,30.25
2022-11-18T05:37:43.232Z,30.05
2022-11-18T05:38:17.282Z,28.08
2022-11-18T05:39:07.222Z,28.54
2022-11-18T05:39:41.292Z,30.83
2022-11-18T05:40:28.183Z,30.05
2022-11-18T05:41:02.315Z,28.09
2022-11-18T05:42:01.268Z,27.11
2022-11-18T05:43:00.036Z,23.89
2022-11-18T05:43:41.195Z,20.01
2022-11-18T05:44:21.197Z,17.98
2022-11-18T05:45:01.173Z,17.65
2022-11-18T05:45:41.213Z,17.06
2022-11-18T05:46:21.166Z,16.65
2022-11-18T05:47:08.180Z,18.14
2022-11-18T05:48:07.168Z,18.16
2022-11-18T05:49:01.262Z,16.10
2022-11-18T05:49:55.241Z,16.16
2022-11-18T05:50:51.173Z,15.90
2022-11-18T05:51:45.176Z,15.05
2022-11-18T05:52:32.261Z,14.96
2022-11-18T05:53:06.281Z,13.79
2022-11-18T05:53:55.224Z,13.89
2022-11-18T05:54:29.209Z,15.02
2022-11-18T05:55:18.218Z,16.04
2022-11-18T05:56:20.275Z,15.41
2022-11-18T05:57:07.212Z,14.77
2022-11-18T05:57:48.180Z,15.38
2022-11-18T05:58:42.206Z,15.14
2022-11-18T05:59:36.195Z,13.98
2022-11-18T06:00:31.174Z,13.44
2022-11-18T06:01:29.196Z,14.25
2022-11-18T06:02:37.166Z,14.79
2022-11-18T06:03:31.420Z,13.80
2022-11-18T06:04:38.243Z,13.98
2022-11-18T06:05:19.159Z,14.24
2022-11-18T06:06:03.204Z,15.30
2022-11-18T06:06:43.270Z,16.27
2022-11-18T06:07:48.283Z,15.95
2022-11-18T06:08:31.301Z,16.51
2022-11-18T06:09:13.273Z,16.17
2022-11-18T06:10:00.848Z,16.67
2022-11-18T06:10:45.312Z,16.08
2022-11-18T06:11:26.149Z,15.20
2022-11-18T06:12:08.246Z,14.96
2022-11-18T06:12:51.210Z,15.07
2022-11-18T06:13:56.183Z,13.09
2022-11-18T06:15:04.119Z,13.27
2022-11-18T06:15:59.126Z,13.59
2022-11-18T06:16:56.349Z,14.05
2022-11-18T06:18:05.178Z,14.07
2022-11-18T06:18:59.211Z,13.99
2022-11-18T06:19:53.132Z,15.80
2022-11-18T06:20:49.164Z,15.60
2022-11-18T06:21:44.126Z,15.90
2022-11-18T06:22:42.140Z,16.71
2022-11-18T06:23:26.193Z,16.65
2022-11-18T06:24:07.234Z,15.77
2022-11-18T06:24:48.130Z,15.69
2022-11-18T06:25:29.173Z,16.01
2022-11-18T06:26:11.912Z,14.32
2022-11-18T06:26:53.133Z,14.88
2022-11-18T06:27:33.282Z,15.13
2022-11-18T06:28:15.137Z,15.98
2022-11-18T06:28:55.205Z,15.57
2022-11-18T06:29:36.158Z,14.69
2022-11-18T06:30:17.264Z,14.10
2022-11-18T06:30:57.116Z,13.98
2022-11-18T06:31:37.148Z,15.61
2022-11-18T06:32:18.180Z,17.46
2022-11-18T06:32:59.196Z,19.67
2022-11-18T06:33:39.128Z,19.56
2022-11-18T06:34:19.340Z,21.17
2022-11-18T06:34:59.153Z,24.20
2022-11-18T06:35:39.178Z,26.09
2022-11-18T06:36:19.082Z,23.73
2022-11-18T06:36:59.255Z,24.52
2022-11-18T06:37:40.102Z,25.02
2022-11-18T06:38:20.272Z,23.01
2022-11-18T06:39:00.110Z,23.75
2022-11-18T06:39:40.195Z,22.33
2022-11-18T06:40:20.161Z,22.04
2022-11-18T06:41:00.197Z,21.11
2022-11-18T06:41:41.110Z,24.33
2022-11-18T06:42:40.518Z,30.20
2022-11-18T06:43:40.078Z,29.17
2022-11-18T06:44:21.254Z,30.51
2022-11-18T06:45:01.177Z,33.71
2022-11-18T06:45:41.188Z,52.09
2022-11-18T06:46:38.608Z,19.04
2022-11-18T06:47:12.893Z,18.75
2022-11-18T06:47:54.089Z,19.14
2022-11-18T06:48:28.138Z,20.83
2022-11-18T06:49:02.770Z,21.31
2022-11-18T06:49:43.117Z,19.79
2022-11-18T06:50:17.185Z,21.36
2022-11-18T06:50:57.170Z,21.52
2022-11-18T06:51:39.027Z,20.56
2022-11-18T06:52:19.130Z,19.90
2022-11-18T06:53:00.137Z,20.11
2022-11-18T06:53:42.170Z,19.85
2022-11-18T06:54:22.293Z,18.98
2022-11-18T06:55:02.068Z,18.19
2022-11-18T06:55:42.145Z,19.74
2022-11-18T06:56:25.073Z,20.26
2022-11-18T06:57:06.156Z,17.85
2022-11-18T06:57:46.121Z,18.13
2022-11-18T06:58:26.114Z,18.36
2022-11-18T06:59:06.152Z,19.06
2022-11-18T06:59:46.106Z,20.34
2022-11-18T07:00:26.062Z,21.14
2022-11-18T07:01:22.308Z,20.98
2022-11-18T07:02:03.117Z,20.39
2022-11-18T07:02:43.215Z,21.06
2022-11-18T07:03:23.056Z,21.54
2022-11-18T07:04:06.251Z,21.31
2022-11-18T07:04:47.167Z,21.51
2022-11-18T07:05:27.089Z,22.02
2022-11-18T07:06:07.120Z,22.64
2022-11-18T07:06:48.081Z,21.94
2022-11-18T07:07:28.177Z,21.48
2022-11-18T07:08:08.117Z,21.20
2022-11-18T07:08:49.137Z,19.94
2022-11-18T07:09:29.165Z,19.24
2022-11-18T07:10:09.106Z,18.80
2022-11-18T07:10:49.172Z,18.84
2022-11-18T07:11:32.094Z,19.60
2022-11-18T07:12:12.120Z,19.40
2022-11-18T07:12:52.084Z,19.70
2022-11-18T07:13:32.410Z,19.84
2022-11-18T07:14:14.046Z,19.58
2022-11-18T07:14:54.137Z,19.65
2022-11-18T07:15:34.048Z,22.64
2022-11-18T07:16:20.327Z,23.59
2022-11-18T07:17:00.084Z,21.45
2022-11-18T07:17:40.108Z,21.34
2022-11-18T07:18:20.064Z,21.65
2022-11-18T07:19:02.101Z,20.67
2022-11-18T07:19:42.061Z,20.51
2022-11-18T07:20:22.126Z,20.19
2022-11-18T07:21:02.030Z,19.64
2022-11-18T07:21:43.361Z,20.41
2022-11-18T07:22:23.173Z,20.85
2022-11-18T07:23:03.152Z,20.06
2022-11-18T07:23:43.093Z,19.64
2022-11-18T07:24:24.150Z,19.55
2022-11-18T07:25:04.081Z,18.83
2022-11-18T07:25:45.481Z,18.63
2022-11-18T07:26:26.090Z,19.33
2022-11-18T07:27:06.185Z,19.46
2022-11-18T07:27:47.133Z,19.85
2022-11-18T07:28:27.131Z,19.44
2022-11-18T07:29:07.126Z,19.02
2022-11-18T07:29:47.114Z,18.86
2022-11-18T07:30:28.106Z,18.36
2022-11-18T07:31:13.252Z,18.84
2022-11-18T07:31:53.033Z,18.08
2022-11-18T07:32:33.438Z,17.94
2022-11-18T07:33:14.056Z,18.04
2022-11-18T07:33:55.116Z,18.45
2022-11-18T07:34:35.066Z,18.67
2022-11-18T07:35:18.374Z,18.59
2022-11-18T07:35:58.045Z,19.10
2022-11-18T07:36:38.070Z,18.98
2022-11-18T07:37:18.124Z,18.58
2022-11-18T07:37:58.108Z,19.69
2022-11-18T07:38:39.056Z,20.17
2022-11-18T07:39:19.431Z,18.95
2022-11-18T07:40:00.138Z,18.49
2022-11-18T07:40:40.176Z,17.92
2022-11-18T07:41:24.227Z,18.04
2022-11-18T07:42:04.058Z,18.31
2022-11-18T07:42:48.997Z,19.35
2022-11-18T07:43:29.115Z,19.05
2022-11-18T07:44:11.070Z,18.31
2022-11-18T07:44:52.090Z,18.09
2022-11-18T07:45:32.077Z,17.81
2022-11-18T07:46:52.194Z,17.83
2022-11-18T07:47:32.095Z,17.20
2022-11-18T07:48:12.039Z,17.95
2022-11-18T07:48:54.997Z,19.56
2022-11-18T07:49:36.034Z,21.50
2022-11-18T07:50:16.085Z,23.36
2022-11-18T07:50:57.046Z,24.61
2022-11-18T07:51:35.147Z,26.96
2022-11-18T07:52:08.806Z,26.56
2022-11-18T07:52:49.090Z,26.26
2022-11-18T07:53:23.061Z,24.96
2022-11-18T07:53:56.961Z,24.56
2022-11-18T07:54:38.103Z,21.65
2022-11-18T07:55:12.148Z,21.81
2022-11-18T07:55:45.661Z,22.13
2022-11-18T07:56:27.065Z,21.80
2022-11-18T07:57:01.192Z,20.30
2022-11-18T07:57:34.705Z,19.85
2022-11-18T07:58:14.993Z,19.51
2022-11-18T07:58:50.104Z,19.61
2022-11-18T07:59:24.773Z,18.27
2022-11-18T08:00:06.069Z,18.10
2022-11-18T08:00:40.088Z,19.54
2022-11-18T08:01:22.539Z,19.85
2022-11-18T08:02:04.098Z,18.49
2022-11-18T08:02:38.065Z,18.88
2022-11-18T08:03:14.609Z,19.02
2022-11-18T08:03:56.045Z,20.23
2022-11-18T08:04:30.084Z,19.49
2022-11-18T08:05:04.452Z,18.65
2022-11-18T08:05:44.053Z,18.65
2022-11-18T08:06:20.186Z,19.44
2022-11-18T08:06:53.781Z,19.80
2022-11-18T08:07:34.115Z,19.83
2022-11-18T08:08:08.089Z,20.95
2022-11-18T08:08:41.940Z,22.38
2022-11-18T08:09:23.009Z,21.10
2022-11-18T08:09:57.192Z,21.47
2022-11-18T08:10:30.965Z,21.92
2022-11-18T08:11:18.984Z,22.85
2022-11-18T08:11:56.234Z,22.61
2022-11-18T08:12:30.758Z,21.71
2022-11-18T08:13:11.018Z,19.90
2022-11-18T08:13:46.110Z,20.33
2022-11-18T08:14:22.777Z,17.31
2022-11-18T08:15:04.020Z,16.91
2022-11-18T08:15:38.190Z,16.65
2022-11-18T08:16:17.636Z,16.67
2022-11-18T08:16:58.082Z,16.71
2022-11-18T08:17:32.050Z,16.95
2022-11-18T08:18:08.495Z,18.61
2022-11-18T08:18:53.025Z,17.36
2022-11-18T08:19:27.204Z,16.90
2022-11-18T08:20:00.725Z,17.51
2022-11-18T08:20:42.005Z,17.71
2022-11-18T08:21:17.552Z,19.02
2022-11-18T08:21:51.805Z,18.39
2022-11-18T08:22:32.052Z,18.13
2022-11-18T08:23:06.249Z,18.67
2022-11-18T08:23:42.281Z,19.54
2022-11-18T08:24:23.005Z,19.15
2022-11-18T08:24:57.277Z,19.94
2022-11-18T08:25:30.733Z,19.45
2022-11-18T08:26:17.978Z,19.52
2022-11-18T08:26:52.331Z,20.04
2022-11-18T08:27:26.709Z,20.17
2022-11-18T08:28:08.116Z,20.84
2022-11-18T08:28:42.643Z,20.51
2022-11-18T08:29:21.820Z,20.92
2022-11-18T08:30:05.066Z,21.16
2022-11-18T08:30:41.024Z,21.09
2022-11-18T08:31:14.641Z,21.52
2022-11-18T08:31:54.974Z,19.67
2022-11-18T08:32:29.026Z,20.42
2022-11-18T08:33:03.022Z,21.14
2022-11-18T08:33:42.952Z,22.77
2022-11-18T08:34:17.010Z,23.92
2022-11-18T08:34:51.691Z,22.73
2022-11-18T08:35:36.093Z,22.89
2022-11-18T08:36:17.109Z,23.30
2022-11-18T08:36:51.677Z,23.50
2022-11-18T08:37:32.012Z,22.19
2022-11-18T08:38:06.027Z,21.89
2022-11-18T08:38:53.040Z,22.54
2022-11-18T08:39:28.087Z,24.48
2022-11-18T08:40:15.983Z,23.86
2022-11-18T08:40:59.003Z,23.59
2022-11-18T08:41:55.951Z,24.67
2022-11-18T08:42:50.023Z,25.38
2022-11-18T08:43:43.973Z,27.36
2022-11-18T08:44:39.989Z,29.00
2022-11-18T08:45:33.988Z,30.20
2022-11-18T08:46:21.001Z,26.91
2022-11-18T08:46:55.022Z,26.51
2022-11-18T08:47:43.011Z,26.55
2022-11-18T08:48:17.172Z,27.55
2022-11-18T08:49:04.995Z,27.35
2022-11-18T08:49:38.984Z,27.39
2022-11-18T08:50:26.058Z,30.08
2022-11-18T08:50:59.962Z,31.14
2022-11-18T08:51:41.023Z,29.58
2022-11-18T08:52:20.997Z,27.59
2022-11-18T08:53:01.925Z,25.98
2022-11-18T08:53:42.028Z,26.13
2022-11-18T08:54:21.979Z,30.96
2022-11-18T08:55:02.267Z,31.92
2022-11-18T08:55:43.005Z,28.66
2022-11-18T08:56:26.074Z,28.98
2022-11-18T08:57:06.977Z,28.98
2022-11-18T08:57:47.869Z,30.85
2022-11-18T08:58:27.929Z,34.40
2022-11-18T08:59:08.869Z,36.71
2022-11-18T08:59:48.974Z,36.86
2022-11-18T09:00:29.061Z,37.42
2022-11-18T09:01:13.035Z,33.06
2022-11-18T09:01:53.103Z,26.94
2022-11-18T09:02:32.965Z,25.08
2022-11-18T09:03:13.044Z,25.16
2022-11-18T09:03:54.367Z,26.35
2022-11-18T09:04:35.002Z,26.09
2022-11-18T09:05:16.013Z,23.48
2022-11-18T09:05:56.973Z,22.61
2022-11-18T09:06:36.897Z,22.76
2022-11-18T09:07:17.138Z,20.74
2022-11-18T09:07:56.983Z,21.67
2022-11-18T09:08:37.065Z,21.92
2022-11-18T09:09:16.928Z,22.38
2022-11-18T09:09:57.953Z,20.73
2022-11-18T09:10:37.981Z,20.50
2022-11-18T09:11:24.046Z,20.36
2022-11-18T09:12:04.008Z,19.65
2022-11-18T09:12:43.989Z,17.34
2022-11-18T09:15:24.990Z,17.31
2022-11-18T09:16:06.002Z,17.49
2022-11-18T09:16:45.925Z,19.24
2022-11-18T09:17:25.961Z,22.31
2022-11-18T09:18:05.927Z,22.23
2022-11-18T09:18:45.988Z,20.34
2022-11-18T09:19:46.061Z,18.99
2022-11-18T09:20:28.884Z,17.88
2022-11-18T09:21:09.025Z,17.84
2022-11-18T09:21:55.961Z,16.88
2022-11-18T09:22:29.985Z,20.38
2022-11-18T09:23:17.933Z,21.84
2022-11-18T09:23:59.038Z,19.16
2022-11-18T09:24:52.944Z,17.44
2022-11-18T09:25:46.984Z,16.92
2022-11-18T09:26:40.929Z,16.38
2022-11-18T09:27:34.983Z,16.59
2022-11-18T09:28:28.917Z,14.10
2022-11-18T09:29:17.965Z,13.64
2022-11-18T09:29:51.986Z,13.30